sensor_id;sensor_type;location;lat;lon;timestamp;temperature;humidity
5278;DHT22;2662;51.194;6.614;2023-12-07T00:01:06;2.00;99.90
5278;DHT22;2662;51.194;6.614;2023-12-07T00:03:33;2.00;99.90
5278;DHT22;2662;51.194;6.614;2023-12-07T00:06:01;1.90;99.90
5278;DHT22;2662;51.194;6.614;2023-12-07T00:08:29;1.90;99.90
5278;DHT22;2662;51.194;6.614;2023-12-07T00:10:56;1.90;99.90
5278;DHT22;2662;51.194;6.614;2023-12-07T00:13:24;1.80;99.90
5278;DHT22;2662;51.194;6.614;2023-12-07T00:15:51;1.80;99.90
5278;DHT22;2662;51.194;6.614;2023-12-07T00:18:18;1.70;99.90
5278;DHT22;2662;51.194;6.614;2023-12-07T00:20:46;1.70;99.90
5278;DHT22;2662;51.194;6.614;2023-12-07T00:23:14;1.70;99.90
5278;DHT22;2662;51.194;6.614;2023-12-07T00:25:41;1.70;99.90
5278;DHT22;2662;51.194;6.614;2023-12-07T00:28:07;1.60;99.90
5278;DHT22;2662;51.194;6.614;2023-12-07T00:30:34;1.60;99.90
5278;DHT22;2662;51.194;6.614;2023-12-07T00:33:01;1.70;99.90
5278;DHT22;2662;51.194;6.614;2023-12-07T00:35:28;1.70;99.90
5278;DHT22;2662;51.194;6.614;2023-12-07T00:37:55;1.70;99.90
5278;DHT22;2662;51.194;6.614;2023-12-07T00:40:24;1.70;99.90
5278;DHT22;2662;51.194;6.614;2023-12-07T00:42:50;1.70;99.90
5278;DHT22;2662;51.194;6.614;2023-12-07T00:45:18;1.80;99.90
5278;DHT22;2662;51.194;6.614;2023-12-07T00:47:46;1.80;99.90
5278;DHT22;2662;51.194;6.614;2023-12-07T00:50:12;1.70;99.90
5278;DHT22;2662;51.194;6.614;2023-12-07T00:52:40;1.70;99.90
5278;DHT22;2662;51.194;6.614;2023-12-07T00:55:09;1.80;99.90
5278;DHT22;2662;51.194;6.614;2023-12-07T00:57:37;1.80;99.90
5278;DHT22;2662;51.194;6.614;2023-12-07T01:00:05;1.70;99.90
5278;DHT22;2662;51.194;6.614;2023-12-07T01:02:33;1.80;99.90
5278;DHT22;2662;51.194;6.614;2023-12-07T01:05:00;1.80;99.90
5278;DHT22;2662;51.194;6.614;2023-12-07T01:07:27;1.80;99.90
5278;DHT22;2662;51.194;6.614;2023-12-07T01:09:54;1.80;99.90
5278;DHT22;2662;51.194;6.614;2023-12-07T01:12:20;1.70;99.90
5278;DHT22;2662;51.194;6.614;2023-12-07T01:14:49;1.70;99.90
5278;DHT22;2662;51.194;6.614;2023-12-07T01:17:15;1.70;99.90
5278;DHT22;2662;51.194;6.614;2023-12-07T01:19:43;1.60;99.90
5278;DHT22;2662;51.194;6.614;2023-12-07T01:22:10;1.60;99.90
5278;DHT22;2662;51.194;6.614;2023-12-07T01:24:36;1.60;99.90
5278;DHT22;2662;51.194;6.614;2023-12-07T01:27:03;1.60;99.90
5278;DHT22;2662;51.194;6.614;2023-12-07T01:29:30;1.60;99.90
5278;DHT22;2662;51.194;6.614;2023-12-07T01:31:58;1.60;99.90
5278;DHT22;2662;51.194;6.614;2023-12-07T01:34:25;1.60;99.90
5278;DHT22;2662;51.194;6.614;2023-12-07T01:36:52;1.50;99.90
5278;DHT22;2662;51.194;6.614;2023-12-07T01:39:18;1.50;99.90
5278;DHT22;2662;51.194;6.614;2023-12-07T01:41:46;1.40;99.90
5278;DHT22;2662;51.194;6.614;2023-12-07T01:44:13;1.40;99.90
5278;DHT22;2662;51.194;6.614;2023-12-07T01:46:40;1.40;99.90
5278;DHT22;2662;51.194;6.614;2023-12-07T01:49:09;1.40;99.90
5278;DHT22;2662;51.194;6.614;2023-12-07T01:51:36;1.40;99.90
5278;DHT22;2662;51.194;6.614;2023-12-07T01:54:03;1.40;99.90
5278;DHT22;2662;51.194;6.614;2023-12-07T01:56:30;1.40;99.90
5278;DHT22;2662;51.194;6.614;2023-12-07T01:58:57;1.40;99.90
5278;DHT22;2662;51.194;6.614;2023-12-07T02:01:24;1.40;99.90
5278;DHT22;2662;51.194;6.614;2023-12-07T02:03:51;1.40;99.90
5278;DHT22;2662;51.194;6.614;2023-12-07T02:06:19;1.40;99.90
5278;DHT22;2662;51.194;6.614;2023-12-07T02:08:47;1.40;99.90
5278;DHT22;2662;51.194;6.614;2023-12-07T02:11:13;1.40;99.90
5278;DHT22;2662;51.194;6.614;2023-12-07T02:13:41;1.30;99.90
5278;DHT22;2662;51.194;6.614;2023-12-07T02:16:13;1.30;99.90
5278;DHT22;2662;51.194;6.614;2023-12-07T02:18:44;1.20;99.90
5278;DHT22;2662;51.194;6.614;2023-12-07T02:21:18;1.20;99.90
5278;DHT22;2662;51.194;6.614;2023-12-07T02:23:51;1.20;99.90
5278;DHT22;2662;51.194;6.614;2023-12-07T02:26:54;1.10;99.90
5278;DHT22;2662;51.194;6.614;2023-12-07T02:29:20;1.10;99.90
5278;DHT22;2662;51.194;6.614;2023-12-07T02:31:48;1.00;99.90
5278;DHT22;2662;51.194;6.614;2023-12-07T02:34:14;1.00;99.90
5278;DHT22;2662;51.194;6.614;2023-12-07T02:36:43;1.00;99.90
5278;DHT22;2662;51.194;6.614;2023-12-07T02:39:10;1.00;99.90
5278;DHT22;2662;51.194;6.614;2023-12-07T02:41:38;1.00;99.90
5278;DHT22;2662;51.194;6.614;2023-12-07T02:44:07;1.00;99.90
5278;DHT22;2662;51.194;6.614;2023-12-07T02:46:34;1.10;99.90
5278;DHT22;2662;51.194;6.614;2023-12-07T02:49:01;1.00;99.90
5278;DHT22;2662;51.194;6.614;2023-12-07T02:51:28;1.00;99.90
5278;DHT22;2662;51.194;6.614;2023-12-07T02:53:55;1.00;99.90
5278;DHT22;2662;51.194;6.614;2023-12-07T02:56:22;1.00;99.90
5278;DHT22;2662;51.194;6.614;2023-12-07T02:58:48;1.00;99.90
5278;DHT22;2662;51.194;6.614;2023-12-07T03:01:17;1.00;99.90
5278;DHT22;2662;51.194;6.614;2023-12-07T03:03:43;1.10;99.90
5278;DHT22;2662;51.194;6.614;2023-12-07T03:06:10;1.00;99.90
5278;DHT22;2662;51.194;6.614;2023-12-07T03:08:37;1.00;99.90
5278;DHT22;2662;51.194;6.614;2023-12-07T03:11:05;1.00;99.90
5278;DHT22;2662;51.194;6.614;2023-12-07T03:13:32;1.00;99.90
5278;DHT22;2662;51.194;6.614;2023-12-07T03:15:59;0.90;99.90
5278;DHT22;2662;51.194;6.614;2023-12-07T03:18:27;0.90;99.90
5278;DHT22;2662;51.194;6.614;2023-12-07T03:20:54;0.90;99.90
5278;DHT22;2662;51.194;6.614;2023-12-07T03:23:21;0.90;99.90
5278;DHT22;2662;51.194;6.614;2023-12-07T03:25:48;0.90;99.90
5278;DHT22;2662;51.194;6.614;2023-12-07T03:28:15;0.90;99.90
5278;DHT22;2662;51.194;6.614;2023-12-07T03:30:41;0.90;99.90
5278;DHT22;2662;51.194;6.614;2023-12-07T03:33:08;0.90;99.90
5278;DHT22;2662;51.194;6.614;2023-12-07T03:35:36;0.90;99.90
5278;DHT22;2662;51.194;6.614;2023-12-07T03:38:03;0.80;99.90
5278;DHT22;2662;51.194;6.614;2023-12-07T03:40:30;0.90;99.90
5278;DHT22;2662;51.194;6.614;2023-12-07T03:42:57;0.90;99.90
5278;DHT22;2662;51.194;6.614;2023-12-07T03:45:23;0.90;99.90
5278;DHT22;2662;51.194;6.614;2023-12-07T03:47:50;0.90;99.90
5278;DHT22;2662;51.194;6.614;2023-12-07T03:50:17;0.90;99.90
5278;DHT22;2662;51.194;6.614;2023-12-07T03:52:45;0.90;99.90
5278;DHT22;2662;51.194;6.614;2023-12-07T03:55:12;1.00;99.90
5278;DHT22;2662;51.194;6.614;2023-12-07T03:57:39;0.90;99.90
5278;DHT22;2662;51.194;6.614;2023-12-07T04:00:07;0.90;99.90
5278;DHT22;2662;51.194;6.614;2023-12-07T04:02:34;0.90;99.90
5278;DHT22;2662;51.194;6.614;2023-12-07T04:05:01;0.80;99.90
5278;DHT22;2662;51.194;6.614;2023-12-07T04:07:28;0.70;99.90
5278;DHT22;2662;51.194;6.614;2023-12-07T04:09:57;0.70;99.90
5278;DHT22;2662;51.194;6.614;2023-12-07T04:12:24;0.70;99.90
5278;DHT22;2662;51.194;6.614;2023-12-07T04:14:51;0.70;99.90
5278;DHT22;2662;51.194;6.614;2023-12-07T04:17:18;0.70;99.90
5278;DHT22;2662;51.194;6.614;2023-12-07T04:19:45;0.70;99.90
5278;DHT22;2662;51.194;6.614;2023-12-07T04:22:11;0.70;99.90
5278;DHT22;2662;51.194;6.614;2023-12-07T04:24:39;0.60;99.90
5278;DHT22;2662;51.194;6.614;2023-12-07T04:27:07;0.60;99.90
5278;DHT22;2662;51.194;6.614;2023-12-07T04:29:34;0.60;99.90
5278;DHT22;2662;51.194;6.614;2023-12-07T04:32:01;0.60;99.90
5278;DHT22;2662;51.194;6.614;2023-12-07T04:34:28;0.70;99.90
5278;DHT22;2662;51.194;6.614;2023-12-07T04:36:55;0.60;99.90
5278;DHT22;2662;51.194;6.614;2023-12-07T04:39:22;0.60;99.90
5278;DHT22;2662;51.194;6.614;2023-12-07T04:41:49;0.60;99.90
5278;DHT22;2662;51.194;6.614;2023-12-07T04:44:18;0.60;99.90
5278;DHT22;2662;51.194;6.614;2023-12-07T04:46:45;0.60;99.90
5278;DHT22;2662;51.194;6.614;2023-12-07T04:49:12;0.60;99.90
5278;DHT22;2662;51.194;6.614;2023-12-07T04:51:39;0.50;99.90
5278;DHT22;2662;51.194;6.614;2023-12-07T04:54:07;0.60;99.90
5278;DHT22;2662;51.194;6.614;2023-12-07T04:56:34;0.60;99.90
5278;DHT22;2662;51.194;6.614;2023-12-07T04:59:01;0.60;99.90
5278;DHT22;2662;51.194;6.614;2023-12-07T05:01:29;0.60;99.90
5278;DHT22;2662;51.194;6.614;2023-12-07T05:03:56;0.70;99.90
5278;DHT22;2662;51.194;6.614;2023-12-07T05:06:23;0.70;99.90
5278;DHT22;2662;51.194;6.614;2023-12-07T05:08:50;0.90;99.90
5278;DHT22;2662;51.194;6.614;2023-12-07T05:11:17;0.90;99.90
5278;DHT22;2662;51.194;6.614;2023-12-07T05:13:44;1.00;99.90
5278;DHT22;2662;51.194;6.614;2023-12-07T05:16:10;1.10;99.90
5278;DHT22;2662;51.194;6.614;2023-12-07T05:18:39;1.10;99.90
5278;DHT22;2662;51.194;6.614;2023-12-07T05:21:06;1.10;99.90
5278;DHT22;2662;51.194;6.614;2023-12-07T05:23:33;1.10;99.90
5278;DHT22;2662;51.194;6.614;2023-12-07T05:26:00;1.10;99.90
5278;DHT22;2662;51.194;6.614;2023-12-07T05:28:27;1.20;99.90
5278;DHT22;2662;51.194;6.614;2023-12-07T05:30:53;1.30;99.90
5278;DHT22;2662;51.194;6.614;2023-12-07T05:33:22;1.40;99.90
5278;DHT22;2662;51.194;6.614;2023-12-07T05:35:51;1.50;99.90
5278;DHT22;2662;51.194;6.614;2023-12-07T05:38:17;1.60;99.90
5278;DHT22;2662;51.194;6.614;2023-12-07T05:40:44;1.70;99.90
5278;DHT22;2662;51.194;6.614;2023-12-07T05:43:11;1.80;99.90
5278;DHT22;2662;51.194;6.614;2023-12-07T05:45:38;1.90;99.90
5278;DHT22;2662;51.194;6.614;2023-12-07T05:48:04;1.90;99.90
5278;DHT22;2662;51.194;6.614;2023-12-07T05:50:31;1.90;99.90
5278;DHT22;2662;51.194;6.614;2023-12-07T05:52:59;2.00;99.90
5278;DHT22;2662;51.194;6.614;2023-12-07T05:55:26;2.00;99.90
5278;DHT22;2662;51.194;6.614;2023-12-07T05:57:53;2.10;99.90
5278;DHT22;2662;51.194;6.614;2023-12-07T06:00:22;2.20;99.90
5278;DHT22;2662;51.194;6.614;2023-12-07T06:02:49;2.30;99.90
5278;DHT22;2662;51.194;6.614;2023-12-07T06:05:16;2.30;99.90
5278;DHT22;2662;51.194;6.614;2023-12-07T06:07:42;2.30;99.90
5278;DHT22;2662;51.194;6.614;2023-12-07T06:10:11;2.30;99.90
5278;DHT22;2662;51.194;6.614;2023-12-07T06:12:37;2.30;99.90
5278;DHT22;2662;51.194;6.614;2023-12-07T06:15:06;2.20;99.90
5278;DHT22;2662;51.194;6.614;2023-12-07T06:17:33;2.10;99.90
5278;DHT22;2662;51.194;6.614;2023-12-07T06:20:00;2.10;99.90
5278;DHT22;2662;51.194;6.614;2023-12-07T06:22:28;2.00;99.90
5278;DHT22;2662;51.194;6.614;2023-12-07T06:24:57;2.00;99.90
5278;DHT22;2662;51.194;6.614;2023-12-07T06:27:27;1.90;99.90
5278;DHT22;2662;51.194;6.614;2023-12-07T06:29:59;1.90;99.90
5278;DHT22;2662;51.194;6.614;2023-12-07T06:32:26;1.80;99.90
5278;DHT22;2662;51.194;6.614;2023-12-07T06:34:52;1.70;99.90
5278;DHT22;2662;51.194;6.614;2023-12-07T06:37:19;1.60;99.90
5278;DHT22;2662;51.194;6.614;2023-12-07T06:39:46;1.60;99.90
5278;DHT22;2662;51.194;6.614;2023-12-07T06:42:14;1.50;99.90
5278;DHT22;2662;51.194;6.614;2023-12-07T06:44:43;1.40;99.90
5278;DHT22;2662;51.194;6.614;2023-12-07T06:47:10;1.40;99.90
5278;DHT22;2662;51.194;6.614;2023-12-07T06:49:36;1.30;99.90
5278;DHT22;2662;51.194;6.614;2023-12-07T06:52:03;1.20;99.90
5278;DHT22;2662;51.194;6.614;2023-12-07T06:54:30;1.20;99.90
5278;DHT22;2662;51.194;6.614;2023-12-07T06:56:57;1.20;99.90
5278;DHT22;2662;51.194;6.614;2023-12-07T06:59:24;1.10;99.90
5278;DHT22;2662;51.194;6.614;2023-12-07T07:01:52;1.10;99.90
5278;DHT22;2662;51.194;6.614;2023-12-07T07:04:19;1.10;99.90
5278;DHT22;2662;51.194;6.614;2023-12-07T07:06:46;1.00;99.90
5278;DHT22;2662;51.194;6.614;2023-12-07T07:09:12;1.00;99.90
5278;DHT22;2662;51.194;6.614;2023-12-07T07:11:41;0.90;99.90
5278;DHT22;2662;51.194;6.614;2023-12-07T07:14:09;0.90;99.90
5278;DHT22;2662;51.194;6.614;2023-12-07T07:16:36;0.80;99.90
5278;DHT22;2662;51.194;6.614;2023-12-07T07:19:04;0.70;99.90
5278;DHT22;2662;51.194;6.614;2023-12-07T07:21:31;0.70;99.90
5278;DHT22;2662;51.194;6.614;2023-12-07T07:23:58;0.70;99.90
5278;DHT22;2662;51.194;6.614;2023-12-07T07:26:25;0.70;99.90
5278;DHT22;2662;51.194;6.614;2023-12-07T07:28:52;0.70;99.90
5278;DHT22;2662;51.194;6.614;2023-12-07T07:31:19;0.70;99.90
5278;DHT22;2662;51.194;6.614;2023-12-07T07:33:46;0.70;99.90
5278;DHT22;2662;51.194;6.614;2023-12-07T07:36:15;0.70;99.90
5278;DHT22;2662;51.194;6.614;2023-12-07T07:38:42;0.80;99.90
5278;DHT22;2662;51.194;6.614;2023-12-07T07:41:09;0.80;99.90
5278;DHT22;2662;51.194;6.614;2023-12-07T07:43:37;0.90;99.90
5278;DHT22;2662;51.194;6.614;2023-12-07T07:46:04;0.90;99.90
5278;DHT22;2662;51.194;6.614;2023-12-07T07:48:31;1.00;99.90
5278;DHT22;2662;51.194;6.614;2023-12-07T07:50:58;1.00;99.90
5278;DHT22;2662;51.194;6.614;2023-12-07T07:53:26;1.00;99.90
5278;DHT22;2662;51.194;6.614;2023-12-07T07:55:53;1.10;99.90
5278;DHT22;2662;51.194;6.614;2023-12-07T07:58:20;1.20;99.90
5278;DHT22;2662;51.194;6.614;2023-12-07T08:00:47;1.20;99.90
5278;DHT22;2662;51.194;6.614;2023-12-07T08:03:14;1.30;99.90
5278;DHT22;2662;51.194;6.614;2023-12-07T08:05:41;1.30;99.90
5278;DHT22;2662;51.194;6.614;2023-12-07T08:08:08;1.40;99.90
5278;DHT22;2662;51.194;6.614;2023-12-07T08:10:38;1.40;99.90
5278;DHT22;2662;51.194;6.614;2023-12-07T08:13:05;1.40;99.90
5278;DHT22;2662;51.194;6.614;2023-12-07T08:15:33;1.40;99.90
5278;DHT22;2662;51.194;6.614;2023-12-07T08:17:59;1.50;99.90
5278;DHT22;2662;51.194;6.614;2023-12-07T08:20:27;1.60;99.90
5278;DHT22;2662;51.194;6.614;2023-12-07T08:22:54;1.80;99.90
5278;DHT22;2662;51.194;6.614;2023-12-07T08:25:21;2.00;99.90
5278;DHT22;2662;51.194;6.614;2023-12-07T08:27:49;2.10;99.90
5278;DHT22;2662;51.194;6.614;2023-12-07T08:30:16;2.30;99.90
5278;DHT22;2662;51.194;6.614;2023-12-07T08:32:44;2.50;99.90
5278;DHT22;2662;51.194;6.614;2023-12-07T08:35:12;2.70;99.90
5278;DHT22;2662;51.194;6.614;2023-12-07T08:37:38;3.00;99.90
5278;DHT22;2662;51.194;6.614;2023-12-07T08:40:06;3.40;99.90
5278;DHT22;2662;51.194;6.614;2023-12-07T08:42:36;3.50;99.90
5278;DHT22;2662;51.194;6.614;2023-12-07T08:45:05;3.70;99.90
5278;DHT22;2662;51.194;6.614;2023-12-07T08:47:33;4.00;99.90
5278;DHT22;2662;51.194;6.614;2023-12-07T08:50:03;4.30;99.90
5278;DHT22;2662;51.194;6.614;2023-12-07T08:52:30;4.70;99.90
5278;DHT22;2662;51.194;6.614;2023-12-07T08:54:58;5.10;99.90
5278;DHT22;2662;51.194;6.614;2023-12-07T08:57:24;5.50;99.90
5278;DHT22;2662;51.194;6.614;2023-12-07T08:59:51;5.90;99.90
5278;DHT22;2662;51.194;6.614;2023-12-07T09:02:21;6.30;99.90
5278;DHT22;2662;51.194;6.614;2023-12-07T09:04:48;6.50;99.90
5278;DHT22;2662;51.194;6.614;2023-12-07T09:07:18;6.70;99.90
5278;DHT22;2662;51.194;6.614;2023-12-07T09:09:46;6.80;99.90
5278;DHT22;2662;51.194;6.614;2023-12-07T09:12:14;6.80;99.90
5278;DHT22;2662;51.194;6.614;2023-12-07T09:14:41;7.10;99.90
5278;DHT22;2662;51.194;6.614;2023-12-07T09:17:08;7.00;99.90
5278;DHT22;2662;51.194;6.614;2023-12-07T09:19:37;6.70;99.90
5278;DHT22;2662;51.194;6.614;2023-12-07T09:22:04;6.40;99.90
5278;DHT22;2662;51.194;6.614;2023-12-07T09:24:31;6.50;99.90
5278;DHT22;2662;51.194;6.614;2023-12-07T09:26:58;6.60;99.90
5278;DHT22;2662;51.194;6.614;2023-12-07T09:29:25;6.80;99.90
5278;DHT22;2662;51.194;6.614;2023-12-07T09:31:52;6.80;99.90
5278;DHT22;2662;51.194;6.614;2023-12-07T09:34:19;6.80;99.90
5278;DHT22;2662;51.194;6.614;2023-12-07T09:36:48;6.90;99.90
5278;DHT22;2662;51.194;6.614;2023-12-07T09:39:15;6.90;99.90
5278;DHT22;2662;51.194;6.614;2023-12-07T09:41:44;7.00;99.90
5278;DHT22;2662;51.194;6.614;2023-12-07T09:44:25;6.90;99.90
5278;DHT22;2662;51.194;6.614;2023-12-07T09:46:53;6.80;99.90
5278;DHT22;2662;51.194;6.614;2023-12-07T09:49:22;6.70;99.90
5278;DHT22;2662;51.194;6.614;2023-12-07T09:51:54;6.80;99.90
5278;DHT22;2662;51.194;6.614;2023-12-07T09:54:22;6.90;99.90
5278;DHT22;2662;51.194;6.614;2023-12-07T09:56:51;7.20;99.90
5278;DHT22;2662;51.194;6.614;2023-12-07T09:59:20;7.60;99.90
5278;DHT22;2662;51.194;6.614;2023-12-07T10:01:47;8.00;99.90
5278;DHT22;2662;51.194;6.614;2023-12-07T10:04:18;8.10;99.90
5278;DHT22;2662;51.194;6.614;2023-12-07T10:06:46;8.10;99.90
5278;DHT22;2662;51.194;6.614;2023-12-07T10:09:14;8.10;99.90
5278;DHT22;2662;51.194;6.614;2023-12-07T10:11:41;8.20;99.90
5278;DHT22;2662;51.194;6.614;2023-12-07T10:14:11;7.90;99.90
5278;DHT22;2662;51.194;6.614;2023-12-07T10:16:42;7.60;99.90
5278;DHT22;2662;51.194;6.614;2023-12-07T10:19:18;7.20;99.90
5278;DHT22;2662;51.194;6.614;2023-12-07T10:21:47;6.50;99.90
5278;DHT22;2662;51.194;6.614;2023-12-07T10:24:21;6.10;99.90
5278;DHT22;2662;51.194;6.614;2023-12-07T10:26:48;5.60;99.90
5278;DHT22;2662;51.194;6.614;2023-12-07T10:29:18;5.40;99.90
5278;DHT22;2662;51.194;6.614;2023-12-07T10:31:45;5.20;99.90
5278;DHT22;2662;51.194;6.614;2023-12-07T10:34:17;5.00;99.90
5278;DHT22;2662;51.194;6.614;2023-12-07T10:36:46;4.80;99.90
5278;DHT22;2662;51.194;6.614;2023-12-07T10:39:14;4.80;99.90
5278;DHT22;2662;51.194;6.614;2023-12-07T10:41:46;4.80;99.90
5278;DHT22;2662;51.194;6.614;2023-12-07T10:44:14;4.90;99.90
5278;DHT22;2662;51.194;6.614;2023-12-07T10:46:43;4.90;99.90
5278;DHT22;2662;51.194;6.614;2023-12-07T10:49:16;5.00;99.90
5278;DHT22;2662;51.194;6.614;2023-12-07T10:51:50;5.00;99.90
5278;DHT22;2662;51.194;6.614;2023-12-07T10:54:22;5.00;99.90
5278;DHT22;2662;51.194;6.614;2023-12-07T10:56:51;5.00;99.90
5278;DHT22;2662;51.194;6.614;2023-12-07T10:59:18;5.00;99.90
5278;DHT22;2662;51.194;6.614;2023-12-07T11:01:47;5.10;99.90
5278;DHT22;2662;51.194;6.614;2023-12-07T11:04:16;5.20;99.90
5278;DHT22;2662;51.194;6.614;2023-12-07T11:06:46;5.20;99.90
5278;DHT22;2662;51.194;6.614;2023-12-07T11:09:23;5.10;99.90
5278;DHT22;2662;51.194;6.614;2023-12-07T11:12:08;5.10;99.90
5278;DHT22;2662;51.194;6.614;2023-12-07T11:14:39;5.10;99.90
5278;DHT22;2662;51.194;6.614;2023-12-07T11:17:06;5.10;99.90
5278;DHT22;2662;51.194;6.614;2023-12-07T11:19:46;5.20;99.90
5278;DHT22;2662;51.194;6.614;2023-12-07T11:22:27;5.30;99.90
5278;DHT22;2662;51.194;6.614;2023-12-07T11:24:56;5.30;99.90
5278;DHT22;2662;51.194;6.614;2023-12-07T11:27:29;5.30;99.90
5278;DHT22;2662;51.194;6.614;2023-12-07T11:30:05;5.40;99.90
5278;DHT22;2662;51.194;6.614;2023-12-07T11:32:34;5.40;99.90
5278;DHT22;2662;51.194;6.614;2023-12-07T11:35:11;5.40;99.90
5278;DHT22;2662;51.194;6.614;2023-12-07T11:38:03;5.40;99.90
5278;DHT22;2662;51.194;6.614;2023-12-07T11:40:32;5.40;99.90
5278;DHT22;2662;51.194;6.614;2023-12-07T11:43:02;5.30;99.90
5278;DHT22;2662;51.194;6.614;2023-12-07T11:45:40;5.20;99.90
5278;DHT22;2662;51.194;6.614;2023-12-07T11:48:12;5.20;99.90
5278;DHT22;2662;51.194;6.614;2023-12-07T11:50:58;5.20;99.90
5278;DHT22;2662;51.194;6.614;2023-12-07T11:53:29;5.20;99.90
5278;DHT22;2662;51.194;6.614;2023-12-07T11:55:59;5.10;99.90
5278;DHT22;2662;51.194;6.614;2023-12-07T11:58:29;5.00;99.90
5278;DHT22;2662;51.194;6.614;2023-12-07T12:00:57;5.00;99.90
5278;DHT22;2662;51.194;6.614;2023-12-07T12:03:24;5.00;99.90
5278;DHT22;2662;51.194;6.614;2023-12-07T12:05:51;5.00;99.90
5278;DHT22;2662;51.194;6.614;2023-12-07T12:08:18;5.00;99.90
5278;DHT22;2662;51.194;6.614;2023-12-07T12:10:47;4.90;99.90
5278;DHT22;2662;51.194;6.614;2023-12-07T12:13:19;4.90;99.90
5278;DHT22;2662;51.194;6.614;2023-12-07T12:15:46;4.90;99.90
5278;DHT22;2662;51.194;6.614;2023-12-07T12:18:13;4.90;99.90
5278;DHT22;2662;51.194;6.614;2023-12-07T12:20:50;4.90;99.90
5278;DHT22;2662;51.194;6.614;2023-12-07T12:23:18;4.90;99.90
5278;DHT22;2662;51.194;6.614;2023-12-07T12:25:46;5.00;99.90
5278;DHT22;2662;51.194;6.614;2023-12-07T12:28:17;5.00;99.90
5278;DHT22;2662;51.194;6.614;2023-12-07T12:30:51;5.00;99.90
5278;DHT22;2662;51.194;6.614;2023-12-07T12:33:20;5.10;99.90
5278;DHT22;2662;51.194;6.614;2023-12-07T12:36:02;5.20;99.90
5278;DHT22;2662;51.194;6.614;2023-12-07T12:38:29;5.30;99.90
5278;DHT22;2662;51.194;6.614;2023-12-07T12:40:56;5.30;99.90
5278;DHT22;2662;51.194;6.614;2023-12-07T12:43:24;5.40;99.90
5278;DHT22;2662;51.194;6.614;2023-12-07T12:45:53;5.50;99.90
5278;DHT22;2662;51.194;6.614;2023-12-07T12:48:23;5.60;99.90
5278;DHT22;2662;51.194;6.614;2023-12-07T12:50:50;5.60;99.90
5278;DHT22;2662;51.194;6.614;2023-12-07T12:53:17;5.60;99.90
5278;DHT22;2662;51.194;6.614;2023-12-07T12:55:45;5.50;99.90
5278;DHT22;2662;51.194;6.614;2023-12-07T12:58:14;5.50;99.90
5278;DHT22;2662;51.194;6.614;2023-12-07T13:00:43;5.50;99.90
5278;DHT22;2662;51.194;6.614;2023-12-07T13:03:11;5.50;99.90
5278;DHT22;2662;51.194;6.614;2023-12-07T13:05:39;5.60;99.90
5278;DHT22;2662;51.194;6.614;2023-12-07T13:08:06;5.60;99.90
5278;DHT22;2662;51.194;6.614;2023-12-07T13:10:37;5.60;99.90
5278;DHT22;2662;51.194;6.614;2023-12-07T13:13:04;5.60;99.90
5278;DHT22;2662;51.194;6.614;2023-12-07T13:15:33;5.70;99.90
5278;DHT22;2662;51.194;6.614;2023-12-07T13:18:00;5.70;99.90
5278;DHT22;2662;51.194;6.614;2023-12-07T13:20:29;5.90;99.90
5278;DHT22;2662;51.194;6.614;2023-12-07T13:22:56;5.90;99.90
5278;DHT22;2662;51.194;6.614;2023-12-07T13:25:25;6.00;99.90
5278;DHT22;2662;51.194;6.614;2023-12-07T13:27:52;6.00;99.90
5278;DHT22;2662;51.194;6.614;2023-12-07T13:30:20;6.00;99.90
5278;DHT22;2662;51.194;6.614;2023-12-07T13:32:50;6.00;99.90
5278;DHT22;2662;51.194;6.614;2023-12-07T13:35:32;6.00;99.90
5278;DHT22;2662;51.194;6.614;2023-12-07T13:38:08;6.00;99.90
5278;DHT22;2662;51.194;6.614;2023-12-07T13:40:39;6.00;99.90
5278;DHT22;2662;51.194;6.614;2023-12-07T13:43:09;6.00;99.90
5278;DHT22;2662;51.194;6.614;2023-12-07T13:45:36;6.00;99.90
5278;DHT22;2662;51.194;6.614;2023-12-07T13:48:04;6.00;99.90
5278;DHT22;2662;51.194;6.614;2023-12-07T13:50:31;6.00;99.90
5278;DHT22;2662;51.194;6.614;2023-12-07T13:52:58;6.10;99.90
5278;DHT22;2662;51.194;6.614;2023-12-07T13:55:27;6.10;99.90
5278;DHT22;2662;51.194;6.614;2023-12-07T13:58:03;6.00;99.90
5278;DHT22;2662;51.194;6.614;2023-12-07T14:00:32;6.00;99.90
5278;DHT22;2662;51.194;6.614;2023-12-07T14:02:59;6.00;99.90
5278;DHT22;2662;51.194;6.614;2023-12-07T14:05:26;6.00;99.90
5278;DHT22;2662;51.194;6.614;2023-12-07T14:07:53;5.90;99.90
5278;DHT22;2662;51.194;6.614;2023-12-07T14:10:20;5.90;99.90
5278;DHT22;2662;51.194;6.614;2023-12-07T14:12:47;5.80;99.90
5278;DHT22;2662;51.194;6.614;2023-12-07T14:15:16;5.70;99.90
5278;DHT22;2662;51.194;6.614;2023-12-07T14:17:43;5.60;99.90
5278;DHT22;2662;51.194;6.614;2023-12-07T14:20:11;5.50;99.90
5278;DHT22;2662;51.194;6.614;2023-12-07T14:22:38;5.50;99.90
5278;DHT22;2662;51.194;6.614;2023-12-07T14:25:05;5.40;99.90
5278;DHT22;2662;51.194;6.614;2023-12-07T14:27:32;5.30;99.90
5278;DHT22;2662;51.194;6.614;2023-12-07T14:29:59;5.20;99.90
5278;DHT22;2662;51.194;6.614;2023-12-07T14:32:28;5.20;99.90
5278;DHT22;2662;51.194;6.614;2023-12-07T14:34:55;5.10;99.90
5278;DHT22;2662;51.194;6.614;2023-12-07T14:37:21;5.00;99.90
5278;DHT22;2662;51.194;6.614;2023-12-07T14:39:48;5.00;99.90
5278;DHT22;2662;51.194;6.614;2023-12-07T14:42:15;4.90;99.90
5278;DHT22;2662;51.194;6.614;2023-12-07T14:44:42;4.90;99.90
5278;DHT22;2662;51.194;6.614;2023-12-07T14:47:09;4.80;99.90
5278;DHT22;2662;51.194;6.614;2023-12-07T14:49:37;4.70;99.90
5278;DHT22;2662;51.194;6.614;2023-12-07T14:52:05;4.60;99.90
5278;DHT22;2662;51.194;6.614;2023-12-07T14:54:32;4.50;99.90
5278;DHT22;2662;51.194;6.614;2023-12-07T14:56:59;4.50;99.90
5278;DHT22;2662;51.194;6.614;2023-12-07T14:59:26;4.40;99.90
5278;DHT22;2662;51.194;6.614;2023-12-07T15:01:54;4.40;99.90
5278;DHT22;2662;51.194;6.614;2023-12-07T15:04:20;4.30;99.90
5278;DHT22;2662;51.194;6.614;2023-12-07T15:06:48;4.30;99.90
5278;DHT22;2662;51.194;6.614;2023-12-07T15:09:15;4.20;99.90
5278;DHT22;2662;51.194;6.614;2023-12-07T15:11:45;4.10;99.90
5278;DHT22;2662;51.194;6.614;2023-12-07T15:14:12;4.00;99.90
5278;DHT22;2662;51.194;6.614;2023-12-07T15:16:38;4.00;99.90
5278;DHT22;2662;51.194;6.614;2023-12-07T15:19:08;3.90;99.90
5278;DHT22;2662;51.194;6.614;2023-12-07T15:21:37;3.90;99.90
5278;DHT22;2662;51.194;6.614;2023-12-07T15:24:05;3.80;99.90
5278;DHT22;2662;51.194;6.614;2023-12-07T15:26:32;3.70;99.90
5278;DHT22;2662;51.194;6.614;2023-12-07T15:28:59;3.70;99.90
5278;DHT22;2662;51.194;6.614;2023-12-07T15:31:26;3.70;99.90
5278;DHT22;2662;51.194;6.614;2023-12-07T15:33:53;3.60;99.90
5278;DHT22;2662;51.194;6.614;2023-12-07T15:36:19;3.60;99.90
5278;DHT22;2662;51.194;6.614;2023-12-07T15:38:46;3.60;99.90
5278;DHT22;2662;51.194;6.614;2023-12-07T15:41:15;3.50;99.90
5278;DHT22;2662;51.194;6.614;2023-12-07T15:43:41;3.50;99.90
5278;DHT22;2662;51.194;6.614;2023-12-07T15:46:09;3.50;99.90
5278;DHT22;2662;51.194;6.614;2023-12-07T15:48:37;3.50;99.90
5278;DHT22;2662;51.194;6.614;2023-12-07T15:51:04;3.50;99.90
5278;DHT22;2662;51.194;6.614;2023-12-07T15:53:32;3.50;99.90
5278;DHT22;2662;51.194;6.614;2023-12-07T15:55:59;3.50;99.90
5278;DHT22;2662;51.194;6.614;2023-12-07T15:58:27;3.50;99.90
5278;DHT22;2662;51.194;6.614;2023-12-07T16:00:54;3.50;99.90
5278;DHT22;2662;51.194;6.614;2023-12-07T16:03:21;3.50;99.90
5278;DHT22;2662;51.194;6.614;2023-12-07T16:05:48;3.50;99.90
5278;DHT22;2662;51.194;6.614;2023-12-07T16:08:15;3.50;99.90
5278;DHT22;2662;51.194;6.614;2023-12-07T16:10:49;3.50;99.90
5278;DHT22;2662;51.194;6.614;2023-12-07T16:13:16;3.50;99.90
5278;DHT22;2662;51.194;6.614;2023-12-07T16:15:46;3.50;99.90
5278;DHT22;2662;51.194;6.614;2023-12-07T16:18:13;3.50;99.90
5278;DHT22;2662;51.194;6.614;2023-12-07T16:20:40;3.50;99.90
5278;DHT22;2662;51.194;6.614;2023-12-07T16:23:09;3.50;99.90